Greenville Downtown Airport
KGMU : now visible

Airfield :











YOU CAN JOIN US ON...

 
LOGIN :

Register | Disclaimer

   EN    FR    IT 

 









Legend :    VFR   Marginal VFR   IFR   Intensive IFR   Very Intensive IFR
Visi :
Ceiling :
>= 8 km
>= 3000ft
5 to 8 km
1000 to 3000 ft
1500m to 5 km
500 to 1000 ft
800 to 1500m
200 to 500 ft
< 800m
< 200 ft
Symbols :   Thunderstorms  Fog  Heavy snow  Heavy precipitations  Wind > 20 kt






- Airport Elevation : 1048 ft


KGMU - Greenville Downtown

CURRENT METAR :
  • 202204Z 06007KT 030V100 10SM FEW008 BKN055 OVC085 25/22 A2983 RMK AO2 T02500222

EXPIRED METARs :
  • 202153Z 08006KT 10SM BKN050 OVC060 25/22 A2983 RMK AO2 RAB2054E44 SLP092 P0003 T02500222
  • 202122Z 08007KT 9SM -RA FEW011 SCT023 OVC039 24/22 A2983 RMK AO2 RAB2054 P0003 T02440222
  • 202115Z 10006KT 6SM -RA BR FEW013 BKN023 OVC041 24/22 A2983 RMK AO2 RAB2054 P0003 T02440222
  • 202053Z 00000KT 9SM SCT017 BKN022 OVC034 25/22 A2983 RMK AO2 SLP091 60000 T02500217 56009
  • 202027Z 36008KT 10SM SCT017 BKN028 OVC038 27/22 A2983 RMK AO2 T02670217
  • 201953Z 00000KT 10SM BKN042 OVC070 26/21 A2983 RMK AO2 RAB03E17 SLP090 P0000 T02610211

TAF KGMU
Valid from the 20 at 18:00 until the 21 at 18:00 UTC


201739Z 2018/2118 01010KT P6SM SCT007 BKN045
TEMPO 2018/2022 2SM SHRA BR OVC007
FM202200 06006KT P6SM VCSH BKN015
FM210000 VRB04KT P6SM BKN015
FM210500 27004KT 4SM BR BKN005
FM211300 25010KT P6SM BKN250
KZTL FIR / North America



MET'MAP, your aeronautical weather chart ! - Copyright ORBIFLY December 2007 - Disclaimer

ORBIFLY MET'MAP TEAM :

Programming & Development : Alexandra Zaïnal
Concept & original design : Baudouin d'Aumeries
Assistance for programming : Marc-Olivier Méhu
Technical & hardware support : Manuel Goepfert

Contact : metmap@orbifly.com




SOURCES & CREDITS :

   NOAA       Earth
Advisory